createdAt,value
2023-01-04T00:00:01.025Z,71.02
2023-01-04T00:02:28.861Z,71.06
2023-01-04T00:04:55.899Z,71.08
2023-01-04T00:07:22.953Z,71.35
2023-01-04T00:09:49.932Z,71.00
2023-01-04T00:12:16.869Z,71.34
2023-01-04T00:14:43.849Z,71.26
2023-01-04T00:17:10.767Z,70.99
2023-01-04T00:19:37.927Z,70.98
2023-01-04T00:22:05.098Z,71.21
2023-01-04T00:24:32.088Z,70.79
2023-01-04T00:26:59.046Z,70.64
2023-01-04T00:29:26.020Z,71.47
2023-01-04T00:31:53.162Z,71.29
2023-01-04T00:34:20.566Z,70.87
2023-01-04T00:36:47.626Z,70.86
2023-01-04T00:39:16.648Z,70.84
2023-01-04T00:42:00.603Z,70.86
2023-01-04T00:44:28.765Z,71.23
2023-01-04T00:46:56.121Z,70.26
2023-01-04T00:49:23.283Z,70.18
2023-01-04T00:51:50.301Z,70.25
2023-01-04T00:54:17.993Z,70.40
2023-01-04T00:56:45.206Z,69.86
2023-01-04T00:59:14.921Z,70.23
2023-01-04T01:01:43.522Z,70.04
2023-01-04T01:04:13.642Z,70.31
2023-01-04T01:06:41.255Z,69.66
2023-01-04T01:09:09.218Z,69.82
2023-01-04T01:11:38.431Z,70.24
2023-01-04T01:14:06.346Z,70.33
2023-01-04T01:19:20.462Z,70.63
2023-01-04T01:21:47.423Z,70.24
2023-01-04T01:24:19.395Z,70.11
2023-01-04T01:26:46.726Z,70.37
2023-01-04T01:29:13.770Z,69.90
2023-01-04T01:31:41.735Z,70.20
2023-01-04T01:34:09.649Z,70.31
2023-01-04T01:36:36.828Z,69.48
2023-01-04T01:39:04.865Z,70.01
2023-01-04T01:41:34.105Z,69.81
2023-01-04T01:44:02.517Z,69.35
2023-01-04T01:46:34.258Z,69.68
2023-01-04T01:49:15.034Z,70.00
2023-01-04T01:51:42.760Z,69.58
2023-01-04T01:54:18.035Z,69.31
2023-01-04T01:56:47.577Z,69.03
2023-01-04T01:59:15.847Z,69.36
2023-01-04T02:01:43.488Z,69.13
2023-01-04T02:04:11.867Z,69.17
2023-01-04T02:06:43.778Z,69.11
2023-01-04T02:09:10.820Z,68.87
2023-01-04T02:11:37.838Z,69.00
2023-01-04T02:14:25.638Z,69.14
2023-01-04T02:17:16.666Z,68.82
2023-01-04T02:20:11.493Z,68.40
2023-01-04T02:23:02.813Z,68.36
2023-01-04T02:25:51.304Z,67.83
2023-01-04T02:28:24.321Z,68.67
2023-01-04T02:30:57.373Z,68.32
2023-01-04T02:33:42.592Z,68.35
2023-01-04T02:36:09.468Z,68.66
2023-01-04T02:38:54.687Z,67.84
2023-01-04T02:41:45.124Z,67.52
2023-01-04T02:44:50.337Z,68.56
2023-01-04T02:47:48.802Z,68.30
2023-01-04T02:50:33.894Z,68.13
2023-01-04T02:53:12.835Z,67.98
2023-01-04T02:55:45.557Z,68.55
2023-01-04T02:58:41.989Z,68.55
2023-01-04T03:01:54.928Z,68.28
2023-01-04T03:04:49.573Z,68.03
2023-01-04T03:07:24.575Z,68.00
2023-01-04T03:09:57.753Z,68.63
2023-01-04T03:12:33.568Z,67.85
2023-01-04T03:15:06.396Z,67.91
2023-01-04T03:17:45.117Z,67.93
2023-01-04T03:20:16.479Z,67.92
2023-01-04T03:23:13.889Z,68.61
2023-01-04T03:26:40.034Z,68.14
2023-01-04T03:29:44.432Z,68.71
2023-01-04T03:32:34.093Z,68.61
2023-01-04T03:35:19.849Z,68.67
2023-01-04T03:37:49.517Z,68.33
2023-01-04T03:40:39.409Z,67.87
2023-01-04T03:43:42.674Z,68.47
2023-01-04T03:46:38.965Z,67.80
2023-01-04T03:49:39.852Z,67.67
2023-01-04T03:52:09.677Z,67.72
2023-01-04T03:54:39.834Z,68.36
2023-01-04T03:57:09.318Z,67.83
2023-01-04T03:59:44.272Z,67.92
2023-01-04T04:02:14.151Z,67.68
2023-01-04T04:05:00.887Z,68.07
2023-01-04T04:07:46.979Z,68.00
2023-01-04T04:10:13.994Z,68.19
2023-01-04T04:12:40.961Z,67.76
2023-01-04T04:15:08.400Z,67.84
2023-01-04T04:17:35.429Z,68.42
2023-01-04T04:20:02.927Z,68.02
2023-01-04T04:22:30.707Z,67.81
2023-01-04T04:24:57.643Z,68.15
2023-01-04T04:27:24.669Z,67.62
2023-01-04T04:29:51.611Z,67.71
2023-01-04T04:32:18.599Z,68.34
2023-01-04T04:34:45.538Z,67.79
2023-01-04T04:37:12.478Z,68.24
2023-01-04T04:39:39.448Z,68.31
2023-01-04T04:42:06.378Z,68.28
2023-01-04T04:44:35.114Z,68.31
2023-01-04T04:47:02.654Z,68.37
2023-01-04T04:49:30.374Z,68.02
2023-01-04T04:51:57.435Z,67.80
2023-01-04T04:54:24.461Z,67.97
2023-01-04T04:56:51.531Z,67.99
2023-01-04T04:59:18.591Z,67.70
2023-01-04T05:01:45.786Z,67.85
2023-01-04T05:04:16.948Z,67.78
2023-01-04T05:06:44.747Z,68.19
2023-01-04T05:09:12.929Z,67.91
2023-01-04T05:11:58.627Z,67.95
2023-01-04T05:14:26.794Z,68.40
2023-01-04T05:16:54.107Z,67.75
2023-01-04T05:19:21.109Z,68.14
2023-01-04T05:21:48.059Z,67.67
2023-01-04T05:24:15.186Z,67.70
2023-01-04T05:26:42.174Z,67.88
2023-01-04T05:29:29.086Z,68.12
2023-01-04T05:31:56.122Z,67.75
2023-01-04T05:34:23.139Z,67.83
2023-01-04T05:36:50.139Z,67.77
2023-01-04T05:39:17.090Z,67.47
2023-01-04T05:42:22.413Z,67.97
2023-01-04T05:44:49.349Z,67.98
2023-01-04T05:47:16.351Z,67.62
2023-01-04T05:49:44.113Z,67.43
2023-01-04T05:52:11.507Z,67.60
2023-01-04T05:54:38.515Z,67.35
2023-01-04T05:57:05.501Z,66.92
2023-01-04T05:59:37.235Z,67.40
2023-01-04T06:02:13.248Z,66.69
2023-01-04T06:04:40.333Z,66.88
2023-01-04T06:07:07.368Z,66.61
2023-01-04T06:09:34.387Z,67.07
2023-01-04T06:12:01.429Z,66.95
2023-01-04T06:14:28.439Z,67.11
2023-01-04T06:16:55.443Z,67.12
2023-01-04T06:19:22.427Z,67.37
2023-01-04T06:21:49.368Z,67.40
2023-01-04T06:24:16.616Z,67.62
2023-01-04T06:26:43.580Z,66.74
2023-01-04T06:29:10.765Z,67.02
2023-01-04T06:31:37.809Z,67.65
2023-01-04T06:34:04.780Z,67.57
2023-01-04T06:36:31.837Z,67.30
2023-01-04T06:39:00.100Z,67.26
2023-01-04T06:41:27.454Z,66.81
2023-01-04T06:43:54.524Z,67.11
2023-01-04T06:46:21.619Z,66.88
2023-01-04T06:48:48.857Z,66.91
2023-01-04T06:51:15.868Z,66.93
2023-01-04T06:53:42.830Z,66.97
2023-01-04T06:56:09.805Z,67.41
2023-01-04T06:58:37.570Z,67.02
2023-01-04T07:01:05.461Z,67.21
2023-01-04T07:03:33.177Z,67.07
2023-01-04T07:06:00.176Z,67.04
2023-01-04T07:08:27.325Z,66.82
2023-01-04T07:10:54.318Z,67.00
2023-01-04T07:13:22.503Z,67.16
2023-01-04T07:15:49.480Z,67.33
2023-01-04T07:18:16.594Z,67.34
2023-01-04T07:20:44.437Z,66.99
2023-01-04T07:23:11.427Z,66.59
2023-01-04T07:25:38.461Z,66.97
2023-01-04T07:28:05.675Z,66.68
2023-01-04T07:30:32.823Z,67.02
2023-01-04T07:32:59.823Z,66.83
2023-01-04T07:35:27.170Z,66.81
2023-01-04T07:37:58.726Z,67.20
2023-01-04T07:40:27.916Z,67.24
2023-01-04T07:42:59.124Z,66.60
2023-01-04T07:45:27.026Z,66.25
2023-01-04T07:47:54.130Z,67.14
2023-01-04T07:50:21.147Z,66.46
2023-01-04T07:52:48.139Z,66.81
2023-01-04T07:55:15.138Z,66.88
2023-01-04T07:57:42.073Z,66.86
2023-01-04T08:00:09.621Z,66.09
2023-01-04T08:02:39.413Z,66.21
2023-01-04T08:05:06.970Z,66.63
2023-01-04T08:07:34.082Z,66.58
2023-01-04T08:10:01.815Z,66.98
2023-01-04T08:12:30.554Z,66.74
2023-01-04T08:14:57.587Z,66.81
2023-01-04T08:17:24.547Z,66.79
2023-01-04T08:19:51.611Z,66.20
2023-01-04T08:22:18.609Z,66.42
2023-01-04T08:24:45.573Z,66.45
2023-01-04T08:27:12.565Z,66.33
2023-01-04T08:29:40.697Z,66.46
2023-01-04T08:32:08.318Z,66.47
2023-01-04T08:34:35.546Z,66.59
2023-01-04T08:37:02.562Z,66.68
2023-01-04T08:39:33.468Z,66.17
2023-01-04T08:42:14.550Z,66.39
2023-01-04T08:44:46.225Z,66.14
2023-01-04T08:47:13.274Z,66.41
2023-01-04T08:49:40.555Z,66.59
2023-01-04T08:52:09.394Z,66.54
2023-01-04T08:54:36.473Z,66.44
2023-01-04T08:57:03.514Z,66.60
2023-01-04T08:59:30.628Z,65.62
2023-01-04T09:02:04.911Z,65.82
2023-01-04T09:04:33.334Z,66.16
2023-01-04T09:07:00.749Z,66.49
2023-01-04T09:09:30.389Z,66.20
2023-01-04T09:11:59.838Z,66.31
2023-01-04T09:14:27.875Z,66.18
2023-01-04T09:16:55.607Z,66.14
2023-01-04T09:19:23.392Z,65.41
2023-01-04T09:21:50.736Z,65.99
2023-01-04T09:24:18.090Z,65.83
2023-01-04T09:26:47.537Z,65.69
2023-01-04T09:29:14.724Z,65.43
2023-01-04T09:31:42.062Z,64.84
2023-01-04T09:34:14.593Z,65.30
2023-01-04T09:36:42.861Z,64.77
2023-01-04T09:39:16.747Z,65.19
2023-01-04T09:42:05.054Z,65.11
2023-01-04T09:47:53.557Z,64.78
2023-01-04T09:50:29.104Z,64.65
2023-01-04T09:53:12.863Z,64.01
2023-01-04T09:55:45.966Z,65.06
2023-01-04T09:58:17.372Z,65.28
2023-01-04T10:00:51.607Z,64.37
2023-01-04T10:03:28.589Z,64.40
2023-01-04T10:05:56.330Z,64.31
2023-01-04T10:08:23.449Z,63.30
2023-01-04T10:11:02.164Z,65.02
2023-01-04T10:13:38.081Z,64.20
2023-01-04T10:17:10.502Z,64.15
2023-01-04T10:22:40.260Z,64.37
2023-01-04T10:25:54.638Z,64.08
2023-01-04T10:28:39.754Z,64.64
2023-01-04T10:31:40.492Z,65.12
2023-01-04T10:34:26.837Z,65.14
2023-01-04T10:37:05.297Z,64.48
2023-01-04T10:39:36.207Z,65.02
2023-01-04T10:42:33.766Z,64.19
2023-01-04T10:45:08.583Z,64.89
2023-01-04T10:47:45.241Z,64.28
2023-01-04T10:50:27.863Z,64.75
2023-01-04T10:53:07.114Z,64.35
2023-01-04T10:55:40.069Z,64.16
2023-01-04T10:58:35.219Z,63.83
2023-01-04T11:01:19.042Z,64.52
2023-01-04T11:03:54.199Z,64.99
2023-01-04T11:06:27.457Z,64.39
2023-01-04T11:09:02.609Z,64.15
2023-01-04T11:11:32.275Z,64.10
2023-01-04T11:14:00.359Z,63.61
2023-01-04T11:16:30.190Z,63.42
2023-01-04T11:18:57.743Z,63.94
2023-01-04T11:21:32.551Z,63.98
2023-01-04T11:24:30.148Z,63.92
2023-01-04T11:26:53.192Z,63.33
2023-01-04T11:29:48.422Z,63.12
2023-01-04T11:32:34.667Z,63.90
2023-01-04T11:35:01.763Z,63.72
2023-01-04T11:37:33.885Z,63.55
2023-01-04T11:40:21.292Z,63.03
2023-01-04T11:42:53.765Z,63.95
2023-01-04T11:45:22.820Z,63.31
2023-01-04T11:47:53.728Z,63.34
2023-01-04T11:50:41.281Z,62.75
2023-01-04T11:53:40.568Z,63.10
2023-01-04T11:56:37.031Z,62.57
2023-01-04T11:59:04.535Z,63.43
2023-01-04T12:01:36.328Z,63.86
2023-01-04T12:04:09.891Z,63.46
2023-01-04T12:06:47.042Z,63.31
2023-01-04T12:09:16.245Z,64.03
2023-01-04T12:11:50.015Z,63.60
2023-01-04T12:14:21.956Z,63.25
2023-01-04T12:16:53.033Z,62.67
2023-01-04T12:19:21.591Z,63.79
2023-01-04T12:22:31.253Z,63.44
2023-01-04T12:25:01.066Z,63.01
2023-01-04T12:27:30.259Z,63.11
2023-01-04T12:30:06.237Z,62.97
2023-01-04T12:32:33.134Z,62.42
2023-01-04T12:35:00.189Z,62.97
2023-01-04T12:37:51.385Z,63.08
2023-01-04T12:40:49.807Z,62.76
2023-01-04T12:43:16.877Z,62.81
2023-01-04T12:45:45.164Z,63.52
2023-01-04T12:48:48.649Z,63.07
2023-01-04T12:51:32.891Z,63.08
2023-01-04T12:54:05.579Z,62.86
2023-01-04T12:57:09.983Z,62.80
2023-01-04T12:59:39.860Z,62.97
2023-01-04T13:02:17.790Z,62.71
2023-01-04T13:04:45.658Z,63.16
2023-01-04T13:07:30.235Z,63.24
2023-01-04T13:10:13.292Z,63.02
2023-01-04T13:12:58.210Z,63.53
2023-01-04T13:15:48.091Z,63.28
2023-01-04T13:18:35.544Z,63.22
2023-01-04T13:21:04.647Z,63.09
2023-01-04T13:23:31.813Z,62.88
2023-01-04T13:26:28.803Z,63.12
2023-01-04T13:29:12.118Z,62.92
2023-01-04T13:31:42.732Z,63.39
2023-01-04T13:34:32.326Z,62.95
2023-01-04T13:37:05.162Z,63.82
2023-01-04T13:39:32.319Z,63.53
2023-01-04T13:41:59.696Z,63.93
2023-01-04T13:45:17.875Z,64.28
2023-01-04T13:47:35.864Z,63.88
2023-01-04T13:50:03.495Z,63.71
2023-01-04T13:55:24.074Z,63.53
2023-01-04T13:57:58.360Z,64.37
2023-01-04T14:00:30.912Z,64.23
2023-01-04T14:03:07.015Z,63.85
2023-01-04T14:05:35.252Z,63.54
2023-01-04T14:08:02.976Z,63.89
2023-01-04T14:10:29.961Z,63.28
2023-01-04T14:13:04.138Z,63.93
2023-01-04T14:15:33.875Z,63.63
2023-01-04T14:18:00.912Z,64.00
2023-01-04T14:20:32.482Z,63.75
2023-01-04T14:22:59.580Z,64.11
2023-01-04T14:25:56.709Z,64.05
2023-01-04T14:28:32.884Z,63.97
2023-01-04T14:31:00.078Z,63.95
2023-01-04T14:33:32.946Z,63.32
2023-01-04T14:36:15.637Z,63.57
2023-01-04T14:39:07.166Z,63.89
2023-01-04T14:41:42.850Z,63.51
2023-01-04T14:44:13.851Z,63.79
2023-01-04T14:46:43.780Z,64.44
2023-01-04T14:49:10.917Z,64.23
2023-01-04T14:51:53.497Z,63.68
2023-01-04T14:54:25.519Z,64.00
2023-01-04T14:56:54.122Z,64.45
2023-01-04T14:59:24.089Z,64.44
2023-01-04T15:01:53.235Z,63.98
2023-01-04T15:04:20.864Z,63.83
2023-01-04T15:06:50.925Z,64.21
2023-01-04T15:09:17.995Z,63.70
2023-01-04T15:11:45.331Z,64.63
2023-01-04T15:14:12.719Z,64.67
2023-01-04T15:16:39.919Z,63.75
2023-01-04T15:19:07.240Z,64.18
2023-01-04T15:21:40.577Z,63.96
2023-01-04T15:24:09.437Z,64.49
2023-01-04T15:26:39.673Z,64.26
2023-01-04T15:29:08.616Z,64.33
2023-01-04T15:31:39.791Z,64.51
2023-01-04T15:34:09.320Z,64.30
2023-01-04T15:36:38.912Z,64.39
2023-01-04T15:39:07.325Z,63.92
2023-01-04T15:41:53.381Z,64.42
2023-01-04T15:44:21.067Z,65.08
2023-01-04T15:46:48.657Z,64.49
2023-01-04T15:49:17.827Z,65.44
2023-01-04T15:51:45.983Z,64.86
2023-01-04T15:54:13.550Z,64.91
2023-01-04T15:56:40.572Z,65.24
2023-01-04T15:59:07.662Z,65.46
2023-01-04T16:01:34.852Z,65.21
2023-01-04T16:04:02.795Z,64.99
2023-01-04T16:06:29.843Z,65.55
2023-01-04T16:08:59.019Z,64.95
2023-01-04T16:11:26.031Z,65.38
2023-01-04T16:13:53.780Z,65.77
2023-01-04T16:16:23.723Z,65.65
2023-01-04T16:18:53.628Z,65.32
2023-01-04T16:21:26.008Z,66.16
2023-01-04T16:24:01.692Z,65.89
2023-01-04T16:26:29.053Z,65.13
2023-01-04T16:28:56.148Z,65.75
2023-01-04T16:31:23.301Z,65.38
2023-01-04T16:33:54.173Z,65.79
2023-01-04T16:36:22.473Z,65.76
2023-01-04T16:38:49.879Z,65.84
2023-01-04T16:41:19.247Z,65.82
2023-01-04T16:43:52.554Z,66.24
2023-01-04T16:46:19.481Z,65.98
2023-01-04T16:48:54.677Z,65.80
2023-01-04T16:51:23.860Z,66.10
2023-01-04T16:53:52.856Z,65.70
2023-01-04T16:56:22.243Z,67.13
2023-01-04T16:58:49.339Z,66.73
2023-01-04T17:01:19.181Z,66.21
2023-01-04T17:03:47.693Z,66.76
2023-01-04T17:06:20.899Z,66.66
2023-01-04T17:08:49.987Z,66.90
2023-01-04T17:14:08.397Z,66.60
2023-01-04T17:16:35.681Z,67.35
2023-01-04T17:19:02.752Z,66.93
2023-01-04T17:21:35.316Z,66.86
2023-01-04T17:24:03.794Z,67.47
2023-01-04T17:26:32.881Z,67.45
2023-01-04T17:29:01.349Z,66.96
2023-01-04T17:31:38.316Z,67.85
2023-01-04T17:34:05.923Z,68.24
2023-01-04T17:36:33.287Z,66.78
2023-01-04T17:39:01.117Z,67.73
2023-01-04T17:41:29.903Z,67.54
2023-01-04T17:44:05.482Z,68.09
2023-01-04T17:46:35.545Z,68.06
2023-01-04T17:49:23.318Z,67.54
2023-01-04T17:51:53.345Z,68.39
2023-01-04T17:54:21.369Z,67.92
2023-01-04T17:56:48.443Z,67.95
2023-01-04T17:59:15.520Z,67.93
2023-01-04T18:01:42.533Z,68.54
2023-01-04T18:04:09.703Z,68.69
2023-01-04T18:06:37.678Z,68.87
2023-01-04T18:09:09.141Z,68.39
2023-01-04T18:11:36.712Z,68.46
2023-01-04T18:14:07.817Z,68.53
2023-01-04T18:16:56.855Z,68.97
2023-01-04T18:19:28.580Z,68.30
2023-01-04T18:21:56.637Z,68.76
2023-01-04T18:24:39.827Z,68.66
2023-01-04T18:27:27.691Z,68.86
2023-01-04T18:29:56.436Z,68.86
2023-01-04T18:32:25.790Z,68.91
2023-01-04T18:34:52.985Z,68.50
2023-01-04T18:37:20.082Z,68.78
2023-01-04T18:39:48.391Z,69.51
2023-01-04T18:42:16.133Z,69.17
2023-01-04T18:44:48.313Z,68.68
2023-01-04T18:47:21.343Z,68.82
2023-01-04T18:49:51.874Z,68.45
2023-01-04T18:52:20.050Z,68.93
2023-01-04T18:54:48.263Z,69.15
2023-01-04T18:57:15.290Z,69.26
2023-01-04T18:59:42.278Z,69.87
2023-01-04T19:02:15.856Z,70.13
2023-01-04T19:04:43.001Z,69.65
2023-01-04T19:07:09.954Z,69.64
2023-01-04T19:09:37.151Z,70.00
2023-01-04T19:12:04.258Z,70.33
2023-01-04T19:14:31.235Z,69.80
2023-01-04T19:16:58.333Z,70.05
2023-01-04T19:19:25.463Z,69.63
2023-01-04T19:21:52.450Z,69.58
2023-01-04T19:24:19.438Z,69.52
2023-01-04T19:26:46.431Z,69.56
2023-01-04T19:29:13.440Z,69.82
2023-01-04T19:31:40.460Z,69.46
2023-01-04T19:34:10.095Z,69.91
2023-01-04T19:36:37.420Z,69.50
2023-01-04T19:39:07.845Z,69.47
2023-01-04T19:41:36.702Z,69.90
2023-01-04T19:44:11.038Z,69.53
2023-01-04T19:46:39.247Z,69.64
2023-01-04T19:49:14.233Z,69.79
2023-01-04T19:51:44.512Z,69.63
2023-01-04T19:54:12.158Z,69.50
2023-01-04T19:56:39.905Z,69.77
2023-01-04T19:59:07.053Z,69.88
2023-01-04T20:01:34.110Z,69.76
2023-01-04T20:04:01.263Z,69.70
2023-01-04T20:06:28.509Z,69.67
2023-01-04T20:08:55.601Z,69.92
2023-01-04T20:11:22.690Z,69.79
2023-01-04T20:13:49.702Z,69.99
2023-01-04T20:16:16.752Z,69.68
2023-01-04T20:18:43.800Z,69.55
2023-01-04T20:21:13.748Z,69.58
2023-01-04T20:23:41.621Z,70.81
2023-01-04T20:26:12.770Z,70.17
2023-01-04T20:28:41.975Z,70.79
2023-01-04T20:31:12.472Z,70.24
2023-01-04T20:33:39.620Z,70.49
2023-01-04T20:36:15.758Z,70.96
2023-01-04T20:38:44.304Z,70.56
2023-01-04T20:41:14.463Z,71.03
2023-01-04T20:43:41.511Z,70.42
2023-01-04T20:46:17.727Z,70.76
2023-01-04T20:48:45.970Z,70.83
2023-01-04T20:51:16.570Z,70.79
2023-01-04T20:53:43.735Z,71.03
2023-01-04T20:56:13.784Z,70.99
2023-01-04T20:58:40.899Z,70.79
2023-01-04T21:01:08.568Z,70.79
2023-01-04T21:03:36.654Z,70.45
2023-01-04T21:06:09.424Z,70.50
2023-01-04T21:08:38.417Z,70.75
2023-01-04T21:11:06.719Z,70.62
2023-01-04T21:13:34.007Z,71.10
2023-01-04T21:16:01.962Z,70.71
2023-01-04T21:18:29.059Z,70.88
2023-01-04T21:20:56.178Z,70.64
2023-01-04T21:23:25.633Z,70.64
2023-01-04T21:25:53.276Z,70.52
2023-01-04T21:28:21.959Z,70.71
2023-01-04T21:30:50.104Z,70.65
2023-01-04T21:33:17.828Z,70.24
2023-01-04T21:35:44.878Z,69.91
2023-01-04T21:38:11.875Z,70.12
2023-01-04T21:40:41.145Z,69.90
2023-01-04T21:43:15.330Z,70.35
2023-01-04T21:45:42.286Z,70.19
2023-01-04T21:48:09.846Z,70.23
2023-01-04T21:50:37.138Z,70.30
2023-01-04T21:53:04.225Z,70.14
2023-01-04T21:55:34.748Z,70.24
2023-01-04T21:58:02.926Z,70.46
2023-01-04T22:00:29.917Z,70.35
2023-01-04T22:02:56.957Z,70.14
2023-01-04T22:05:23.996Z,70.44
2023-01-04T22:07:50.962Z,69.74
2023-01-04T22:10:17.940Z,70.15
2023-01-04T22:12:47.907Z,70.33
2023-01-04T22:15:14.986Z,70.06
2023-01-04T22:17:42.030Z,69.97
2023-01-04T22:20:09.707Z,69.97
2023-01-04T22:22:36.681Z,69.32
2023-01-04T22:25:03.880Z,69.89
2023-01-04T22:27:31.136Z,69.19
2023-01-04T22:29:58.195Z,69.10
2023-01-04T22:32:25.142Z,69.46
2023-01-04T22:34:52.255Z,69.09
2023-01-04T22:37:19.351Z,69.35
2023-01-04T22:39:46.348Z,69.48
2023-01-04T22:42:14.126Z,69.65
2023-01-04T22:44:41.170Z,69.07
2023-01-04T22:47:08.261Z,69.43
2023-01-04T22:49:35.244Z,69.11
2023-01-04T22:52:02.228Z,69.09
2023-01-04T22:54:31.330Z,69.20
2023-01-04T22:56:58.328Z,69.56
2023-01-04T22:59:26.950Z,69.03
2023-01-04T23:01:54.180Z,69.01
2023-01-04T23:04:21.394Z,69.22
2023-01-04T23:06:48.486Z,69.60
2023-01-04T23:09:18.118Z,70.06
2023-01-04T23:11:45.414Z,70.28
2023-01-04T23:14:15.736Z,70.21
2023-01-04T23:16:44.051Z,70.15
2023-01-04T23:19:13.077Z,69.88
2023-01-04T23:21:40.225Z,70.49
2023-01-04T23:24:08.066Z,70.52
2023-01-04T23:26:35.090Z,70.54
2023-01-04T23:29:02.635Z,69.70
2023-01-04T23:31:31.781Z,69.99
2023-01-04T23:34:01.479Z,69.75
2023-01-04T23:36:33.990Z,69.79
2023-01-04T23:39:03.305Z,70.05
2023-01-04T23:41:45.839Z,69.97
2023-01-04T23:44:26.158Z,69.52
2023-01-04T23:47:01.805Z,69.56
2023-01-04T23:49:31.165Z,69.19
2023-01-04T23:51:59.245Z,69.61
2023-01-04T23:54:27.125Z,68.83
2023-01-04T23:56:54.849Z,68.86
2023-01-04T23:59:22.890Z,69.54
